Time;durP1;ratioP1;P1;durP2;ratioP2;P2;SDS_P1;SDS_P2;PMS_P1;PMS_P2;Temp;Humidity;BMP_temperature;BMP_pressure;BME280_temperature;BME280_humidity;BME280_pressure;Samples;Min_cycle;Max_cycle;Signal;HPM_P1;HPM_P2
2023/04/06 00:00:29;;;;;;;25.58;12.70;;;;;;;2.43;77.76;101646.53;5082685;28;19920;-76
2023/04/06 00:02:54;;;;;;;25.35;12.43;;;;;;;2.43;77.70;101643.88;5079956;28;20128;-76
2023/04/06 00:05:21;;;;;;;27.13;12.80;;;;;;;2.43;77.51;101642.97;5072601;28;20104;-76
2023/04/06 00:07:47;;;;;;;27.10;12.77;;;;;;;2.40;76.83;101636.00;5074519;28;20024;-76
2023/04/06 00:10:12;;;;;;;26.38;12.57;;;;;;;2.43;78.61;101629.72;5071816;28;20049;-76
2023/04/06 00:12:37;;;;;;;28.88;13.00;;;;;;;2.41;79.51;101634.19;5072409;28;20063;-76
2023/04/06 00:15:05;;;;;;;26.08;13.48;;;;;;;2.39;78.38;101630.72;5067921;28;20021;-76
2023/04/06 00:17:30;;;;;;;25.25;12.88;;;;;;;2.39;80.80;101636.03;5077442;28;20031;-76
2023/04/06 00:19:56;;;;;;;27.80;12.93;;;;;;;2.38;80.17;101627.19;5061957;28;20021;-76
2023/04/06 00:22:21;;;;;;;26.08;13.25;;;;;;;2.38;78.68;101616.56;5084070;28;20024;-76
2023/04/06 00:24:46;;;;;;;24.23;10.57;;;;;;;2.41;77.96;101619.16;5071025;28;20040;-76
2023/04/06 00:27:12;;;;;;;22.85;10.85;;;;;;;2.43;77.90;101622.66;5055065;28;20029;-76
2023/04/06 00:29:38;;;;;;;24.35;11.13;;;;;;;2.49;76.80;101612.75;5059440;28;20032;-76
2023/04/06 00:32:03;;;;;;;24.52;10.52;;;;;;;2.52;75.51;101613.56;5077638;28;20040;-76
2023/04/06 00:34:29;;;;;;;25.98;11.07;;;;;;;2.57;75.25;101613.44;5074929;28;20025;-76
2023/04/06 00:36:54;;;;;;;22.92;9.95;;;;;;;2.65;75.65;101613.22;5076013;28;20032;-76
2023/04/06 00:39:20;;;;;;;24.65;11.07;;;;;;;2.68;74.69;101611.34;5082202;28;20067;-76
2023/04/06 00:41:49;;;;;;;25.75;11.13;;;;;;;2.73;74.13;101601.47;5076383;28;20039;-76
2023/04/06 00:44:15;;;;;;;24.02;9.65;;;;;;;2.77;73.48;101600.47;5058234;28;20012;-76
2023/04/06 00:46:40;;;;;;;26.10;10.88;;;;;;;2.78;71.92;101599.56;5076432;28;20039;-76
2023/04/06 00:49:05;;;;;;;23.38;10.00;;;;;;;2.79;71.47;101595.97;5075098;28;20104;-76
2023/04/06 00:51:31;;;;;;;24.35;10.63;;;;;;;2.83;71.83;101585.28;5071723;28;20028;-76
2023/04/06 00:53:56;;;;;;;22.48;10.45;;;;;;;2.87;71.20;101584.25;5070067;28;20025;-76
2023/04/06 00:56:23;;;;;;;24.73;11.30;;;;;;;2.92;72.41;101585.03;5072675;28;20085;-76
2023/04/06 00:58:49;;;;;;;25.02;10.45;;;;;;;2.94;71.14;101580.53;5061805;28;20018;-76
2023/04/06 01:01:14;;;;;;;24.40;10.45;;;;;;;2.98;70.25;101576.88;5063136;28;20048;-76
2023/04/06 01:03:42;;;;;;;26.17;11.80;;;;;;;3.01;70.67;101581.22;5081393;28;20032;-76
2023/04/06 01:06:07;;;;;;;28.50;10.20;;;;;;;3.05;70.18;101577.56;5078954;28;20009;-76
2023/04/06 01:08:32;;;;;;;26.88;11.95;;;;;;;3.09;69.15;101573.88;5078439;28;20099;-76
2023/04/06 01:11:00;;;;;;;25.02;11.25;;;;;;;3.12;68.46;101568.50;5076593;28;20032;-76
2023/04/06 01:13:26;;;;;;;24.85;11.82;;;;;;;3.17;68.73;101569.22;5068676;28;20010;-76
2023/04/06 01:15:51;;;;;;;25.52;11.65;;;;;;;3.18;68.44;101557.66;5069992;28;20101;-76
2023/04/06 01:18:17;;;;;;;25.92;10.57;;;;;;;3.21;68.63;101562.03;5067240;28;20032;-76
2023/04/06 01:20:42;;;;;;;24.70;11.05;;;;;;;3.26;68.57;101562.75;5093577;28;20020;-76
2023/04/06 01:23:07;;;;;;;24.52;10.80;;;;;;;3.28;68.37;101567.09;5060855;28;20046;-76
2023/04/06 01:25:32;;;;;;;26.42;12.68;;;;;;;3.31;68.88;101563.47;5059917;28;20056;-76
2023/04/06 01:27:58;;;;;;;26.52;12.55;;;;;;;3.35;68.36;101565.09;5070438;28;20050;-76
2023/04/06 01:30:26;;;;;;;28.65;12.05;;;;;;;3.38;69.25;101561.47;5066326;28;20013;-76
2023/04/06 01:32:52;;;;;;;26.65;12.25;;;;;;;3.37;68.10;101555.31;5065728;28;20037;-76
2023/04/06 01:35:18;;;;;;;25.90;11.43;;;;;;;3.41;67.90;101553.41;5081452;28;20120;-76
2023/04/06 01:37:44;;;;;;;25.75;12.65;;;;;;;3.41;67.81;101562.28;5074048;28;20039;-76
2023/04/06 01:40:10;;;;;;;25.67;12.65;;;;;;;3.42;68.31;101556.00;5063471;28;20044;-76
2023/04/06 01:42:35;;;;;;;26.00;12.38;;;;;;;3.42;68.44;101550.69;5066631;28;20028;-76
2023/04/06 01:45:01;;;;;;;26.52;12.82;;;;;;;3.43;69.70;101544.47;5067128;28;20021;-76
2023/04/06 01:47:26;;;;;;;26.67;13.45;;;;;;;3.44;68.35;101546.22;5081179;28;20031;-76
2023/04/06 01:49:51;;;;;;;26.30;12.50;;;;;;;3.46;69.42;101539.06;5071406;28;20040;-76
2023/04/06 01:52:16;;;;;;;27.73;14.73;;;;;;;3.48;69.35;101545.22;5078650;28;20055;-76
2023/04/06 01:54:42;;;;;;;28.33;13.20;;;;;;;3.49;68.44;101538.94;5078327;28;20055;-76
2023/04/06 01:57:07;;;;;;;25.48;12.07;;;;;;;3.52;68.42;101534.47;5063955;28;20069;-76
2023/04/06 01:59:32;;;;;;;27.40;12.52;;;;;;;3.55;69.15;101537.88;5078822;28;20036;-76
2023/04/06 02:01:58;;;;;;;24.98;12.88;;;;;;;3.57;69.60;101521.88;5075117;28;20033;-76
2023/04/06 02:04:26;;;;;;;27.02;13.38;;;;;;;3.60;69.06;101524.44;5068514;28;20021;-76
2023/04/06 02:06:51;;;;;;;26.60;13.48;;;;;;;3.61;69.79;101520.88;5073749;28;20545;-76
2023/04/06 02:09:16;;;;;;;26.70;13.40;;;;;;;3.64;69.79;101523.44;5062480;28;20041;-76
2023/04/06 02:11:42;;;;;;;29.40;14.23;;;;;;;3.66;69.79;101522.47;5076566;28;20399;-76
2023/04/06 02:14:07;;;;;;;28.92;14.73;;;;;;;3.68;69.89;101517.94;5073981;28;20031;-76
2023/04/06 02:16:32;;;;;;;26.33;13.27;;;;;;;3.71;69.83;101516.97;5097003;28;20054;-76
2023/04/06 02:18:57;;;;;;;29.38;13.88;;;;;;;3.72;68.41;101513.41;5077098;28;20033;-76
2023/04/06 02:21:23;;;;;;;27.50;14.00;;;;;;;3.73;68.97;101509.81;5087801;28;20028;-76
2023/04/06 02:23:49;;;;;;;28.10;15.10;;;;;;;3.77;69.22;101506.13;5070730;28;20025;-76
2023/04/06 02:26:15;;;;;;;28.27;15.02;;;;;;;3.79;68.70;101504.31;5083495;28;20044;-76
2023/04/06 02:28:40;;;;;;;28.85;14.32;;;;;;;3.82;68.71;101501.53;5072567;28;20028;-76
2023/04/06 02:31:06;;;;;;;29.38;16.08;;;;;;;3.85;68.55;101503.19;5074474;28;20027;-76
2023/04/06 02:33:31;;;;;;;28.23;14.77;;;;;;;3.86;68.38;101496.97;5083583;28;20498;-76
2023/04/06 02:35:56;;;;;;;27.95;15.77;;;;;;;3.87;68.64;101498.72;5072775;28;20048;-76
2023/04/06 02:38:21;;;;;;;31.73;15.93;;;;;;;3.89;69.73;101493.34;5072840;28;20090;-76
2023/04/06 02:40:47;;;;;;;28.58;15.05;;;;;;;3.89;68.71;101486.22;5075015;28;20032;-76
2023/04/06 02:43:12;;;;;;;28.45;14.90;;;;;;;3.91;68.71;101484.41;5079410;28;20072;-76
2023/04/06 02:45:37;;;;;;;33.90;15.70;;;;;;;3.93;67.90;101481.69;5079644;28;20051;-76
2023/04/06 02:48:03;;;;;;;31.10;14.98;;;;;;;3.95;68.96;101485.13;5067880;28;20081;-76
2023/04/06 02:50:28;;;;;;;27.38;15.40;;;;;;;3.96;68.72;101476.25;5061747;28;20077;-76
2023/04/06 02:52:53;;;;;;;29.13;15.20;;;;;;;3.96;68.51;101477.09;5056662;28;20033;-76
2023/04/06 02:55:19;;;;;;;30.25;16.02;;;;;;;3.98;68.62;101477.94;5073825;28;20032;-76
2023/04/06 02:57:45;;;;;;;27.48;14.90;;;;;;;3.99;68.46;101474.34;5073413;28;20041;-76
2023/04/06 03:00:11;;;;;;;30.17;16.20;;;;;;;4.01;68.79;101468.97;5076812;28;20034;-76
2023/04/06 03:02:37;;;;;;;32.50;17.13;;;;;;;4.02;68.96;101465.38;5071502;28;20417;-76
2023/04/06 03:05:03;;;;;;;29.35;15.63;;;;;;;4.03;68.79;101460.00;5065128;28;20058;-76
2023/04/06 03:07:28;;;;;;;29.88;15.82;;;;;;;4.03;68.30;101472.44;5074173;28;20032;-76
2023/04/06 03:09:54;;;;;;;32.85;16.08;;;;;;;4.05;68.55;101465.28;5070893;28;20020;-76
2023/04/06 03:12:19;;;;;;;28.75;14.80;;;;;;;4.05;69.12;101467.06;5060470;28;20040;-76
2023/04/06 03:14:45;;;;;;;34.08;15.25;;;;;;;4.06;67.82;101460.84;5082263;28;20033;-76
2023/04/06 03:17:10;;;;;;;29.98;16.08;;;;;;;4.06;67.78;101456.38;5066557;28;20025;-76
2023/04/06 03:19:36;;;;;;;29.95;16.40;;;;;;;4.08;68.33;101457.19;5075543;28;20116;-76
2023/04/06 03:22:01;;;;;;;30.10;16.30;;;;;;;4.08;68.72;101464.31;5081902;28;20032;-76
2023/04/06 03:24:26;;;;;;;29.38;16.35;;;;;;;4.09;68.36;101448.28;5070449;28;20103;-76
2023/04/06 03:26:52;;;;;;;27.60;15.45;;;;;;;4.08;67.55;101446.53;5076356;28;20086;-76
2023/04/06 03:29:17;;;;;;;32.90;18.05;;;;;;;4.09;67.76;101445.63;5065299;28;20051;-76
2023/04/06 03:31:42;;;;;;;32.90;17.13;;;;;;;4.10;67.89;101442.03;5064702;28;20028;-76
2023/04/06 03:34:08;;;;;;;31.40;17.45;;;;;;;4.11;68.06;101437.59;5077620;28;20035;-76
2023/04/06 03:36:34;;;;;;;29.58;15.50;;;;;;;4.12;67.74;101440.19;5080543;28;20185;-76
2023/04/06 03:39:00;;;;;;;28.48;15.23;;;;;;;4.13;67.98;101439.28;5056020;28;20025;-76
2023/04/06 03:41:25;;;;;;;28.40;15.10;;;;;;;4.14;68.06;101441.00;5071102;28;20020;-76
2023/04/06 03:43:50;;;;;;;28.67;15.63;;;;;;;4.14;67.97;101442.78;5076489;28;20016;-76
2023/04/06 03:46:15;;;;;;;27.45;15.82;;;;;;;4.13;67.87;101441.94;5074066;28;20017;-76
2023/04/06 03:48:41;;;;;;;30.80;15.85;;;;;;;4.12;68.56;101440.19;5072652;28;20036;-76
2023/04/06 03:51:06;;;;;;;29.95;16.35;;;;;;;4.12;68.11;101440.19;5072590;28;20048;-76
2023/04/06 03:53:31;;;;;;;31.23;16.55;;;;;;;4.13;68.30;101441.03;5064874;28;20119;-76
2023/04/06 03:55:57;;;;;;;31.15;16.20;;;;;;;4.12;67.79;101440.19;5076858;28;20049;-76
2023/04/06 03:58:22;;;;;;;26.83;14.68;;;;;;;4.12;67.81;101442.84;5068847;28;20104;-76
2023/04/06 04:00:47;;;;;;;29.15;15.80;;;;;;;4.11;68.02;101435.78;5062788;28;20104;-76
2023/04/06 04:03:12;;;;;;;28.70;17.23;;;;;;;4.11;68.48;101438.44;5054539;28;20078;-76
2023/04/06 04:05:38;;;;;;;28.98;16.38;;;;;;;4.10;68.36;101441.16;5060897;28;20035;-76
2023/04/06 04:08:03;;;;;;;30.40;16.98;;;;;;;4.09;68.20;101434.13;5073878;28;20032;-76
2023/04/06 04:10:29;;;;;;;29.80;15.82;;;;;;;4.08;68.21;101437.69;5076593;28;20044;-76
2023/04/06 04:12:54;;;;;;;31.27;17.13;;;;;;;4.07;67.64;101431.53;5067941;28;20025;-76
2023/04/06 04:15:20;;;;;;;29.33;16.35;;;;;;;4.05;68.03;101433.34;5075138;28;20036;-76
2023/04/06 04:17:46;;;;;;;29.17;16.23;;;;;;;4.05;68.71;101440.47;5075709;28;20056;-76
2023/04/06 04:20:12;;;;;;;29.58;15.57;;;;;;;4.02;68.37;101434.31;5064894;28;20020;-76
2023/04/06 04:22:37;;;;;;;29.95;16.13;;;;;;;4.02;67.67;101438.78;5077123;28;20054;-76
2023/04/06 04:25:03;;;;;;;30.02;16.85;;;;;;;4.02;67.41;101433.47;5064619;28;20032;-76
2023/04/06 04:27:28;;;;;;;30.50;16.98;;;;;;;4.01;68.12;101431.72;5066972;28;20037;-76
2023/04/06 04:29:53;;;;;;;29.75;17.13;;;;;;;4.00;68.18;101430.88;5064954;28;20017;-76
2023/04/06 04:32:19;;;;;;;29.08;15.90;;;;;;;4.02;67.25;101431.66;5073826;28;20380;-76
2023/04/06 04:34:45;;;;;;;28.15;15.85;;;;;;;4.03;68.13;101427.22;5074159;28;20028;-76
2023/04/06 04:37:10;;;;;;;32.42;16.17;;;;;;;4.04;68.44;101431.59;5069358;28;20017;-76
2023/04/06 04:39:35;;;;;;;28.05;14.88;;;;;;;4.05;67.18;101425.38;5068257;28;20051;-76
2023/04/06 04:42:00;;;;;;;29.65;16.73;;;;;;;4.06;67.81;101431.56;5069652;28;20057;-76
2023/04/06 04:44:26;;;;;;;34.05;16.58;;;;;;;4.06;67.62;101427.13;5080571;28;20023;-76
2023/04/06 04:46:51;;;;;;;29.27;16.10;;;;;;;4.07;67.48;101425.31;5074982;28;20036;-76
2023/04/06 04:49:17;;;;;;;28.90;15.25;;;;;;;4.09;67.87;101423.47;5062500;28;20040;-76
2023/04/06 04:51:42;;;;;;;29.33;14.52;;;;;;;4.09;67.29;101427.00;5076428;28;20031;-76
2023/04/06 04:54:07;;;;;;;32.20;16.95;;;;;;;4.11;66.71;101414.50;5071453;28;20033;-76
2023/04/06 04:56:32;;;;;;;30.15;15.77;;;;;;;4.14;66.51;101424.16;5067018;28;20108;-76
2023/04/06 04:58:58;;;;;;;30.75;16.05;;;;;;;4.14;66.50;101421.50;5071400;28;20028;-76
2023/04/06 05:01:23;;;;;;;32.85;16.98;;;;;;;4.16;67.54;101414.34;5061457;28;20088;-76
2023/04/06 05:03:48;;;;;;;29.90;16.38;;;;;;;4.15;66.81;101415.28;5077867;28;20029;-76
2023/04/06 05:06:14;;;;;;;34.15;18.17;;;;;;;4.16;66.62;101417.88;5055402;28;20064;-76
2023/04/06 05:08:40;;;;;;;30.67;16.80;;;;;;;4.16;66.73;101417.00;5065950;28;20037;-76
2023/04/06 05:11:06;;;;;;;30.17;15.30;;;;;;;4.18;66.63;101416.00;5061334;28;20074;-76
2023/04/06 05:13:31;;;;;;;33.80;16.75;;;;;;;4.19;67.64;101417.75;5057302;28;20036;-76
2023/04/06 05:15:56;;;;;;;28.48;16.13;;;;;;;4.20;67.17;101416.84;5071496;28;20085;-76
2023/04/06 05:18:22;;;;;;;29.65;16.42;;;;;;;4.22;68.20;101411.44;5079888;28;20024;-76
2023/04/06 05:20:47;;;;;;;30.35;16.67;;;;;;;4.24;67.20;101417.56;5074821;28;20035;-76
2023/04/06 05:23:12;;;;;;;28.77;15.57;;;;;;;4.27;66.91;101421.91;5077997;28;20088;-76
2023/04/06 05:25:38;;;;;;;30.60;15.38;;;;;;;4.28;67.56;101419.19;5066085;28;20017;-76
2023/04/06 05:28:03;;;;;;;31.50;16.55;;;;;;;4.30;68.04;101414.66;5056032;28;20029;-78
2023/04/06 05:30:28;;;;;;;28.05;14.88;;;;;;;4.33;67.37;101419.03;5078964;28;20029;-75
2023/04/06 05:32:54;;;;;;;28.00;15.05;;;;;;;4.37;67.07;101421.50;5063214;28;20025;-76
2023/04/06 05:35:19;;;;;;;30.80;16.20;;;;;;;4.39;66.53;101418.78;5071766;28;20408;-76
2023/04/06 05:37:45;;;;;;;31.77;15.85;;;;;;;4.41;66.24;101422.25;5065773;28;20026;-76
2023/04/06 05:40:11;;;;;;;29.08;15.27;;;;;;;4.44;66.87;101427.47;5085247;28;20036;-76
2023/04/06 05:42:41;;;;;;;27.27;14.27;;;;;;;4.46;65.97;101419.44;5067983;28;20013;-76
2023/04/06 05:45:06;;;;;;;;;;;;;;;4.53;66.88;101419.13;5073752;28;20024;-76
2023/04/06 05:47:31;;;;;;;31.92;16.17;;;;;;;4.52;66.98;101420.06;5078294;28;19923;-76
2023/04/06 05:49:57;;;;;;;30.88;16.05;;;;;;;4.54;67.07;101412.03;5064188;28;20025;-76
2023/04/06 05:52:22;;;;;;;29.13;16.10;;;;;;;4.56;65.51;101415.47;5084040;28;20021;-76
2023/04/06 05:54:47;;;;;;;28.58;15.38;;;;;;;4.60;65.83;101416.22;5081754;28;20056;-75
2023/04/06 05:57:12;;;;;;;27.63;16.05;;;;;;;4.65;66.48;101422.22;5077754;28;20116;-75
2023/04/06 05:59:38;;;;;;;29.63;14.10;;;;;;;4.68;66.61;101414.13;5080787;28;20028;-76
2023/04/06 06:02:03;;;;;;;28.73;16.23;;;;;;;4.68;66.08;101407.00;5083674;28;20027;-75
2023/04/06 06:04:30;;;;;;;29.92;16.05;;;;;;;4.72;65.84;101415.75;5079035;28;20087;-75
2023/04/06 06:06:56;;;;;;;27.73;15.18;;;;;;;4.76;65.60;101424.47;5066627;28;20093;-75
2023/04/06 06:09:21;;;;;;;31.17;15.88;;;;;;;4.79;65.69;101421.69;5077643;28;20017;-75
2023/04/06 06:11:46;;;;;;;28.77;15.35;;;;;;;4.81;65.74;101427.81;5088201;28;20058;-75
2023/04/06 06:14:12;;;;;;;33.42;16.65;;;;;;;4.83;65.30;101418.84;5083087;28;20016;-75
2023/04/06 06:16:37;;;;;;;30.70;15.77;;;;;;;4.88;65.68;101426.66;5079453;28;20043;-75
2023/04/06 06:19:03;;;;;;;30.30;15.68;;;;;;;4.89;66.19;101426.59;5070579;28;20045;-75
2023/04/06 06:21:28;;;;;;;31.08;16.58;;;;;;;4.93;65.99;101421.13;5060071;28;20054;-75
2023/04/06 06:23:54;;;;;;;31.23;16.65;;;;;;;4.97;65.35;101420.09;5070862;28;20021;-75
2023/04/06 06:26:20;;;;;;;29.88;17.35;;;;;;;5.01;65.83;101424.38;5070358;28;20097;-75
2023/04/06 06:28:45;;;;;;;29.23;14.70;;;;;;;5.02;65.47;101421.63;5064727;28;20017;-75
2023/04/06 06:31:10;;;;;;;27.27;15.48;;;;;;;5.04;65.44;101419.75;5080304;28;20036;-75
2023/04/06 06:33:35;;;;;;;36.45;15.77;;;;;;;5.07;65.41;101419.63;5078491;28;20033;-75
2023/04/06 06:36:01;;;;;;;30.40;15.88;;;;;;;5.11;65.98;101431.06;5065638;28;20040;-75
2023/04/06 06:38:26;;;;;;;29.60;15.85;;;;;;;5.13;65.24;101423.84;5078982;28;20020;-75
2023/04/06 06:40:52;;;;;;;33.33;16.27;;;;;;;5.14;64.72;101425.59;5077090;28;20048;-75
2023/04/06 06:43:17;;;;;;;30.67;16.00;;;;;;;5.15;65.15;101423.78;5070297;28;20029;-75
2023/04/06 06:45:43;;;;;;;30.48;15.63;;;;;;;5.15;65.45;101421.13;5068057;28;20044;-75
2023/04/06 06:48:09;;;;;;;27.27;15.73;;;;;;;5.16;65.05;101415.72;5073045;28;20094;-75
2023/04/06 06:50:34;;;;;;;29.40;14.48;;;;;;;5.17;64.08;101425.47;5072400;28;20059;-75
2023/04/06 06:52:59;;;;;;;33.08;17.55;;;;;;;5.19;65.13;101418.25;5064503;28;20021;-75
2023/04/06 06:55:26;;;;;;;27.92;15.70;;;;;;;5.22;65.42;101423.47;5077565;28;20024;-75
2023/04/06 06:57:52;;;;;;;27.02;14.63;;;;;;;5.25;65.07;101418.00;5066945;28;20128;-75
2023/04/06 07:00:17;;;;;;;29.67;16.10;;;;;;;5.29;65.44;101416.09;5078915;28;20032;-75
2023/04/06 07:02:43;;;;;;;29.52;15.27;;;;;;;5.33;65.74;101414.16;5074672;28;20025;-75
2023/04/06 07:05:08;;;;;;;28.58;15.50;;;;;;;5.36;65.75;101416.69;5067944;28;20039;-75
2023/04/06 07:07:34;;;;;;;29.40;14.57;;;;;;;5.40;65.25;101415.63;5070283;28;20059;-76
2023/04/06 07:10:00;;;;;;;27.98;15.32;;;;;;;5.41;65.33;101415.56;5077633;28;20021;-75
2023/04/06 07:12:25;;;;;;;29.65;15.07;;;;;;;5.46;65.25;101409.16;5065092;28;20014;-75
2023/04/06 07:14:50;;;;;;;29.20;14.93;;;;;;;5.49;64.75;101415.25;5085424;28;20096;-75
2023/04/06 07:17:15;;;;;;;34.30;15.55;;;;;;;5.52;64.43;101411.56;5083328;28;20091;-76
2023/04/06 07:19:41;;;;;;;29.63;14.90;;;;;;;5.54;66.01;101407.91;5072172;28;20040;-76
2023/04/06 07:22:09;;;;;;;29.88;15.15;;;;;;;5.57;64.22;101410.44;5077295;28;20035;-76
2023/04/06 07:24:35;;;;;;;31.27;16.52;;;;;;;5.62;65.54;101409.38;5079185;28;20057;-76
2023/04/06 07:27:00;;;;;;;32.50;16.08;;;;;;;5.66;65.34;101410.97;5076600;28;20047;-76
2023/04/06 07:29:26;;;;;;;27.67;15.18;;;;;;;5.71;64.90;101408.94;5071142;28;20025;-75
2023/04/06 07:31:52;;;;;;;26.50;14.13;;;;;;;5.73;65.00;101397.28;5074545;28;20052;-75
2023/04/06 07:34:20;;;;;;;32.30;16.80;;;;;;;5.77;65.84;101401.56;5076185;28;20012;-75
2023/04/06 07:36:45;;;;;;;31.80;16.05;;;;;;;5.81;64.77;101401.44;5075195;28;20092;-76
2023/04/06 07:39:11;;;;;;;29.58;15.38;;;;;;;5.85;64.04;101398.53;5071297;28;20060;-76
2023/04/06 07:41:36;;;;;;;32.00;16.92;;;;;;;5.88;64.71;101402.88;5080622;28;20047;-76
2023/04/06 07:44:03;;;;;;;33.60;15.27;;;;;;;5.93;64.75;101406.22;5075601;28;20242;-76
2023/04/06 07:46:28;;;;;;;29.92;16.10;;;;;;;5.97;65.40;101405.16;5065709;28;20024;-76
2023/04/06 07:48:53;;;;;;;28.27;14.80;;;;;;;6.00;64.98;101397.03;5068802;28;20044;-76
2023/04/06 07:51:19;;;;;;;27.80;14.45;;;;;;;6.03;65.69;101398.69;5077953;28;20090;-76
2023/04/06 07:53:45;;;;;;;35.70;15.57;;;;;;;6.06;65.35;101403.88;5067855;28;20040;-76
2023/04/06 07:56:11;;;;;;;30.08;15.73;;;;;;;6.10;65.23;101403.66;5081181;28;20036;-76
2023/04/06 07:58:37;;;;;;;29.45;16.02;;;;;;;6.13;65.06;101402.66;5080862;28;20039;-76
2023/04/06 08:01:02;;;;;;;32.13;15.02;;;;;;;6.16;64.71;101413.19;5067894;28;20052;-76
2023/04/06 08:03:27;;;;;;;29.80;16.10;;;;;;;6.20;64.58;101408.59;5080361;28;20024;-76
2023/04/06 08:05:53;;;;;;;30.10;16.00;;;;;;;6.23;65.13;101405.78;5081461;28;20401;-76
2023/04/06 08:08:19;;;;;;;29.52;15.77;;;;;;;6.28;65.99;101411.75;5080589;28;20025;-76
2023/04/06 08:10:44;;;;;;;31.33;16.63;;;;;;;6.32;66.69;101407.16;5078921;28;20021;-76
2023/04/06 08:13:09;;;;;;;29.55;15.65;;;;;;;6.37;66.21;101407.81;5082608;28;20122;-76
2023/04/06 08:15:35;;;;;;;29.45;15.00;;;;;;;6.43;65.74;101402.19;5076318;28;20029;-76
2023/04/06 08:18:00;;;;;;;31.30;16.63;;;;;;;6.47;65.66;101406.44;5070566;28;20025;-76
2023/04/06 08:20:26;;;;;;;29.10;15.15;;;;;;;6.53;65.65;101402.59;5084524;28;20040;-76
2023/04/06 08:22:51;;;;;;;28.02;15.23;;;;;;;6.59;65.66;101407.69;5069058;28;20032;-76
2023/04/06 08:25:16;;;;;;;27.13;15.32;;;;;;;6.62;64.64;101408.38;5074500;28;20032;-76
2023/04/06 08:27:41;;;;;;;29.65;14.80;;;;;;;6.68;66.00;101403.69;5070601;28;20037;-76
2023/04/06 08:30:07;;;;;;;29.38;14.43;;;;;;;6.72;65.21;101414.16;5083093;28;20017;-76
2023/04/06 08:32:32;;;;;;;28.20;15.05;;;;;;;6.76;66.32;101409.53;5076521;28;20036;-76
2023/04/06 08:34:57;;;;;;;34.90;15.95;;;;;;;6.79;65.16;101409.38;5074321;28;20075;-76
2023/04/06 08:37:23;;;;;;;31.27;15.80;;;;;;;6.82;65.99;101415.44;5071196;28;20048;-76
2023/04/06 08:39:48;;;;;;;29.60;16.42;;;;;;;6.85;66.37;101419.75;5075262;28;20134;-76
2023/04/06 08:42:19;;;;;;;28.25;15.48;;;;;;;6.90;66.84;101411.53;5073482;28;20052;-76
2023/04/06 08:44:45;;;;;;;31.42;15.65;;;;;;;6.96;65.52;101419.25;5070681;28;20037;-76
2023/04/06 08:47:12;;;;;;;34.13;15.95;;;;;;;6.98;65.23;101412.91;5062688;28;20032;-76
2023/04/06 08:49:37;;;;;;;29.33;16.75;;;;;;;7.03;65.19;101419.81;5066686;28;20032;-76
2023/04/06 08:52:06;;;;;;;28.58;14.18;;;;;;;7.07;65.77;101413.38;5065716;28;20032;-76
2023/04/06 08:54:31;;;;;;;29.23;15.38;;;;;;;7.13;65.41;101415.72;5087513;28;20024;-76
2023/04/06 08:56:57;;;;;;;29.33;15.70;;;;;;;7.17;65.70;101414.63;5082574;28;20163;-76
2023/04/06 08:59:24;;;;;;;30.40;15.25;;;;;;;7.25;65.92;101412.47;5080149;28;20032;-76
2023/04/06 09:01:51;;;;;;;30.25;16.23;;;;;;;7.33;66.35;101415.59;5071806;28;20518;-76
2023/04/06 09:04:17;;;;;;;31.85;16.58;;;;;;;7.41;67.32;101414.34;5095248;28;20123;-76
2023/04/06 09:06:42;;;;;;;29.45;15.60;;;;;;;7.47;67.40;101416.72;5090702;28;20036;-76
2023/04/06 09:09:08;;;;;;;29.88;15.95;;;;;;;7.52;67.20;101415.53;5068043;28;20037;-76
2023/04/06 09:11:48;;;;;;;35.28;17.40;;;;;;;7.59;67.97;101420.56;5072700;28;20025;-76
2023/04/06 09:14:15;;;;;;;31.40;15.93;;;;;;;7.66;69.58;101416.63;5061422;28;20024;-76
2023/04/06 09:16:45;;;;;;;30.20;16.65;;;;;;;7.70;68.94;101429.78;5074401;28;20055;-76
2023/04/06 09:19:11;;;;;;;26.52;15.73;;;;;;;7.76;70.75;101422.34;5079435;28;20104;-76
2023/04/06 09:21:39;;;;;;;30.13;14.50;;;;;;;7.81;70.92;101428.34;5073524;28;20021;-76
2023/04/06 09:24:07;;;;;;;33.28;16.88;;;;;;;7.85;71.83;101429.91;5077388;28;20073;-76
2023/04/06 09:26:33;;;;;;;30.60;16.60;;;;;;;7.89;71.17;101428.78;5065386;28;20029;-76
2023/04/06 09:29:00;;;;;;;28.58;15.27;;;;;;;7.92;71.57;101411.72;5071880;28;20028;-76
2023/04/06 09:31:35;;;;;;;28.23;15.70;;;;;;;7.94;70.95;101416.03;5069550;28;20088;-76
2023/04/06 09:34:01;;;;;;;29.88;16.63;;;;;;;7.98;71.82;101416.72;5070923;28;20050;-76
2023/04/06 09:36:34;;;;;;;28.77;14.95;;;;;;;8.03;71.29;101418.22;5084839;28;20033;-76
2023/04/06 09:39:02;;;;;;;30.25;16.00;;;;;;;8.08;71.29;101411.75;5081746;28;20073;-76
2023/04/06 09:41:32;;;;;;;28.60;15.05;;;;;;;8.11;71.42;101416.94;5078972;28;20020;-76
2023/04/06 09:44:08;;;;;;;29.27;14.90;;;;;;;8.12;71.38;101413.31;5084354;28;20013;-76
2023/04/06 09:46:36;;;;;;;29.08;13.63;;;;;;;8.13;71.88;101415.91;5081320;28;20054;-76
2023/04/06 09:49:02;;;;;;;29.13;15.00;;;;;;;8.17;73.66;101416.59;5081609;28;20029;-76
2023/04/06 09:51:33;;;;;;;28.23;14.40;;;;;;;8.17;72.44;101419.28;5082498;28;20013;-76
2023/04/06 09:54:02;;;;;;;25.08;13.38;;;;;;;8.18;74.05;101418.34;5069016;28;20048;-76
2023/04/06 09:56:33;;;;;;;26.40;13.27;;;;;;;8.16;75.42;101415.75;5080568;28;20084;-76
2023/04/06 09:59:04;;;;;;;28.95;13.23;;;;;;;8.17;76.27;101419.28;5070882;28;20013;-76
2023/04/06 10:01:33;;;;;;;26.52;11.90;;;;;;;8.14;76.51;101414.97;5070698;28;20047;-76
2023/04/06 10:04:30;;;;;;;25.75;11.55;;;;;;;8.19;78.51;101415.59;5076268;28;20051;-76
2023/04/06 10:06:57;;;;;;;22.63;11.25;;;;;;;8.18;81.67;101413.00;5079581;28;20081;-76
2023/04/06 10:09:25;;;;;;;25.95;12.15;;;;;;;8.17;81.55;101414.81;5083446;28;20008;-76
2023/04/06 10:11:51;;;;;;;25.42;10.90;;;;;;;8.18;82.43;101416.53;5076685;28;20088;-76
2023/04/06 10:14:17;;;;;;;25.35;11.73;;;;;;;8.18;81.61;101418.34;5068077;28;20026;-76
2023/04/06 10:16:42;;;;;;;23.58;11.80;;;;;;;8.18;81.43;101418.34;5078588;28;20071;-76
2023/04/06 10:19:24;;;;;;;25.60;12.15;;;;;;;8.17;81.52;101412.13;5072976;28;20524;-76
2023/04/06 10:21:54;;;;;;;27.50;11.75;;;;;;;8.19;84.63;101420.09;5079604;28;20077;-76
2023/04/06 10:24:19;;;;;;;24.92;12.85;;;;;;;8.21;85.40;101418.19;5074702;28;20024;-76
2023/04/06 10:26:57;;;;;;;26.50;11.82;;;;;;;8.20;85.64;101420.00;5080849;28;20048;-76
2023/04/06 10:29:22;;;;;;;27.58;11.98;;;;;;;8.18;85.42;101421.03;5084123;28;20068;-76
2023/04/06 10:31:48;;;;;;;24.95;12.25;;;;;;;8.15;85.65;101421.19;5080977;28;20043;-76
2023/04/06 10:34:14;;;;;;;26.27;12.43;;;;;;;8.13;87.37;101417.75;5081470;28;20028;-76
2023/04/06 10:36:39;;;;;;;26.25;11.05;;;;;;;8.11;86.33;101424.97;5072134;28;20093;-76
2023/04/06 10:39:06;;;;;;;24.27;10.77;;;;;;;8.07;87.90;101423.41;5078765;28;20469;-76
2023/04/06 10:41:51;;;;;;;24.85;10.90;;;;;;;8.07;88.11;101418.06;5074117;28;20055;-76
2023/04/06 10:44:21;;;;;;;22.17;9.45;;;;;;;8.04;89.75;101409.25;5072749;28;20032;-76
2023/04/06 10:47:00;;;;;;;25.10;11.00;;;;;;;8.05;89.20;101412.78;5078133;28;20051;-76
2023/04/06 10:49:26;;;;;;;24.38;9.85;;;;;;;8.09;91.92;101413.50;5072290;28;20029;-76
2023/04/06 10:51:54;;;;;;;22.67;9.93;;;;;;;8.08;91.15;101406.41;5069161;28;20028;-76
2023/04/06 10:54:22;;;;;;;27.27;10.65;;;;;;;8.10;91.11;101407.22;5070055;28;20021;-76
2023/04/06 10:56:47;;;;;;;21.27;9.57;;;;;;;8.12;91.18;101405.28;5072620;28;20071;-76
2023/04/06 10:59:12;;;;;;;24.67;9.32;;;;;;;8.15;91.73;101407.81;5072410;28;20029;-76
2023/04/06 11:01:37;;;;;;;21.75;8.75;;;;;;;8.18;92.19;101399.59;5059153;28;20104;-76
2023/04/06 11:04:03;;;;;;;21.77;8.77;;;;;;;8.21;94.32;101402.09;5074487;28;20132;-76
2023/04/06 11:06:31;;;;;;;22.13;9.23;;;;;;;8.25;92.73;101400.16;5073443;28;20313;-76
2023/04/06 11:08:56;;;;;;;22.25;9.13;;;;;;;8.27;92.02;101393.72;5075591;28;20035;-76
2023/04/06 11:11:26;;;;;;;23.67;10.10;;;;;;;8.30;93.85;101395.38;5074035;28;20119;-76